Time;durP1;ratioP1;P1;durP2;ratioP2;P2;SDS_P1;SDS_P2;PMS_P1;PMS_P2;Temp;Humidity;BMP_temperature;BMP_pressure;BME280_temperature;BME280_humidity;BME280_pressure;Samples;Min_cycle;Max_cycle;Signal;HPM_P1;HPM_P2
2021/12/12 00:01:16;;;;;;;6.00;3.70;;;;;;;4.79;80.27;99111.79;101951;1317;74467;-19
2021/12/12 00:03:48;;;;;;;6.50;3.70;;;;;;;5.04;79.00;99116.58;101693;1317;61210;-20
2021/12/12 00:06:26;;;;;;;6.70;3.60;;;;;;;4.79;79.06;99110.41;101794;1320;61221;-19
2021/12/12 00:09:05;;;;;;;7.10;4.70;;;;;;;4.42;79.98;99112.63;101744;1316;74695;-19
2021/12/12 00:11:35;;;;;;;5.90;4.40;;;;;;;4.13;81.02;99115.91;101713;1316;75830;-20
2021/12/12 00:14:11;;;;;;;5.00;2.60;;;;;;;3.93;81.89;99125.38;101633;1317;74478;-20
2021/12/12 00:16:40;;;;;;;4.10;3.10;;;;;;;4.39;81.37;99132.23;101695;1319;61204;-19
2021/12/12 00:19:08;;;;;;;5.30;3.40;;;;;;;4.86;79.70;99135.30;101885;1316;61162;-19
2021/12/12 00:21:38;;;;;;;6.20;3.80;;;;;;;4.83;79.19;99134.77;101667;1316;72333;-19
2021/12/12 00:24:10;;;;;;;6.40;4.20;;;;;;;4.58;79.75;99142.33;101706;1319;75981;-19
2021/12/12 00:26:39;;;;;;;6.50;4.30;;;;;;;4.25;80.74;99146.18;101753;1316;73126;-19
2021/12/12 00:29:08;;;;;;;4.00;2.70;;;;;;;4.00;81.80;99149.77;101688;1316;61191;-19
2021/12/12 00:31:36;;;;;;;5.50;3.40;;;;;;;4.32;81.12;99152.51;101670;1320;61204;-20
2021/12/12 00:34:05;;;;;;;6.90;4.10;;;;;;;4.77;80.00;99162.64;101536;1315;75725;-19
2021/12/12 00:36:34;;;;;;;5.40;3.30;;;;;;;4.77;79.68;99164.84;101580;1317;75931;-19
2021/12/12 00:39:23;;;;;;;5.80;2.90;;;;;;;4.55;80.22;99166.61;101550;1316;73337;-19
2021/12/12 00:42:08;;;;;;;8.60;4.50;;;;;;;4.18;81.01;99163.41;101354;1319;62182;-19
2021/12/12 00:44:38;;;;;;;6.90;4.90;;;;;;;3.91;81.57;99162.41;101703;1317;61847;-19
2021/12/12 00:47:07;;;;;;;3.60;2.50;;;;;;;3.72;82.41;99156.18;101401;1320;347104;-19
2021/12/12 00:49:37;;;;;;;8.00;3.90;;;;;;;4.12;81.60;99154.59;101732;1317;76101;-20
2021/12/12 00:52:08;;;;;;;7.20;4.50;;;;;;;4.58;79.83;99154.21;101564;1317;74920;-20
2021/12/12 00:54:36;;;;;;;5.10;3.10;;;;;;;4.67;79.66;99154.75;101641;1316;62254;-20
2021/12/12 00:57:07;;;;;;;6.10;4.40;;;;;;;4.53;79.96;99150.86;101723;1316;61306;-19
2021/12/12 00:59:35;;;;;;;6.80;4.40;;;;;;;4.31;80.29;99150.48;101728;1323;76403;-19
2021/12/12 01:02:07;;;;;;;7.30;5.20;;;;;;;4.08;80.89;99155.86;101737;1317;74203;-20
2021/12/12 01:04:41;;;;;;;7.80;4.50;;;;;;;3.81;81.80;99150.58;101698;1320;74517;-20
2021/12/12 01:07:13;;;;;;;8.90;5.30;;;;;;;3.71;82.56;99143.66;101637;1317;61175;-19
2021/12/12 01:09:50;;;;;;;7.80;5.60;;;;;;;3.77;82.81;99148.20;101663;1319;61301;-20
2021/12/12 01:12:23;;;;;;;7.50;3.80;;;;;;;4.23;81.91;99155.42;101765;1316;74184;-20
2021/12/12 01:14:58;;;;;;;6.60;4.30;;;;;;;4.24;81.42;99157.77;101713;1319;74468;-20
2021/12/12 01:17:37;;;;;;;7.60;5.10;;;;;;;4.08;81.48;99158.27;101711;1317;74648;-20
2021/12/12 01:20:22;;;;;;;8.60;6.20;;;;;;;3.85;81.65;99159.11;101671;1317;61148;-20
2021/12/12 01:22:52;;;;;;;8.60;4.80;;;;;;;3.49;83.29;99157.82;101683;1316;61285;-20
2021/12/12 01:25:24;;;;;;;7.20;4.00;;;;;;;3.46;83.79;99149.91;101717;1316;75753;-20
2021/12/12 01:27:53;;;;;;;9.10;5.10;;;;;;;3.61;83.58;99149.69;101818;1319;76141;-20
2021/12/12 01:30:22;;;;;;;7.90;4.90;;;;;;;3.57;83.81;99152.80;101798;1316;74432;-20
2021/12/12 01:32:50;;;;;;;8.00;5.20;;;;;;;3.55;83.80;99157.70;101611;1317;62152;-20
2021/12/12 01:35:20;;;;;;;9.20;5.80;;;;;;;3.41;84.29;99158.91;101594;1316;62372;-20
2021/12/12 01:40:50;;;;;;;9.30;5.40;;;;;;;3.56;84.98;99163.15;101407;1323;75126;-19
2021/12/12 01:43:25;;;;;;;8.60;5.40;;;;;;;4.02;82.92;99165.25;101686;1323;71253;-19
2021/12/12 01:46:00;;;;;;;8.20;4.60;;;;;;;3.94;82.09;99166.20;101681;1316;62233;-20
2021/12/12 01:48:36;;;;;;;8.80;5.50;;;;;;;3.73;82.72;99171.22;101644;1316;61173;-20
2021/12/12 01:51:07;;;;;;;8.50;5.20;;;;;;;3.65;83.30;99167.35;101713;1316;75660;-20
2021/12/12 01:53:38;;;;;;;4.90;2.60;;;;;;;3.57;83.21;99173.22;101712;1317;76104;-19
2021/12/12 01:56:50;;;;;;;11.40;5.30;;;;;;;4.10;82.44;99171.55;101584;1316;74482;-20
2021/12/12 01:59:19;;;;;;;9.00;5.70;;;;;;;4.63;79.71;99172.00;101374;1322;61322;-20
2021/12/12 02:01:54;;;;;;;9.20;5.70;;;;;;;4.39;80.12;99173.32;101270;1322;61262;-20
2021/12/12 02:04:25;;;;;;;7.20;4.30;;;;;;;4.10;81.17;99174.32;101158;1325;76436;-20
2021/12/12 02:06:55;;;;;;;8.30;5.20;;;;;;;3.81;82.17;99176.64;101166;1325;74699;-20
2021/12/12 02:09:24;;;;;;;9.30;5.70;;;;;;;3.65;83.02;99177.11;101182;1326;74506;-20
2021/12/12 02:11:54;;;;;;;6.40;3.50;;;;;;;3.59;83.17;99179.33;101383;1322;63183;-20
2021/12/12 02:14:22;;;;;;;11.30;5.00;;;;;;;4.02;82.41;99176.77;101161;1325;62560;-20
2021/12/12 02:17:04;;;;;;;10.80;6.60;;;;;;;4.51;80.64;99182.44;101260;1326;75783;-21
2021/12/12 02:19:50;;;;;;;6.30;3.60;;;;;;;4.69;80.57;99190.10;101123;1328;75860;-21
2021/12/12 02:22:44;;;;;;;10.20;6.10;;;;;;;4.50;79.86;99192.81;101146;1325;74645;-21
2021/12/12 02:36:12;;;;;;;10.30;6.40;;;;;;;5.15;78.23;99208.36;101633;1316;73009;-21
2021/12/12 02:38:41;;;;;;;8.00;4.30;;;;;;;5.08;78.28;99211.88;101589;1323;61143;-21
2021/12/12 02:41:12;;;;;;;12.20;6.90;;;;;;;4.87;79.12;99212.33;101571;1316;61177;-21
2021/12/12 02:43:47;;;;;;;16.20;7.80;;;;;;;4.64;79.76;99213.02;101680;1317;75665;-21
2021/12/12 02:46:18;;;;;;;13.30;7.80;;;;;;;4.40;80.14;99215.02;101568;1319;75157;-21
2021/12/12 02:48:47;;;;;;;10.10;4.70;;;;;;;4.17;80.71;99214.84;101716;1320;73500;-21
2021/12/12 02:51:17;;;;;;;11.60;5.80;;;;;;;4.62;80.80;99216.95;101731;1319;61271;-21
2021/12/12 02:53:54;;;;;;;15.10;7.10;;;;;;;5.20;79.32;99222.70;101733;1319;62026;-21
2021/12/12 02:56:37;;;;;;;10.60;5.40;;;;;;;5.22;77.97;99223.29;101803;1317;75843;-21
2021/12/12 02:59:10;;;;;;;11.70;6.50;;;;;;;5.01;78.61;99224.78;101959;1320;75122;-21
2021/12/12 03:01:50;;;;;;;10.50;6.20;;;;;;;4.74;79.40;99226.27;102038;1316;73289;-21
2021/12/12 03:04:18;;;;;;;13.70;8.10;;;;;;;4.47;79.84;99227.36;101992;1317;61999;-20
2021/12/12 03:06:47;;;;;;;6.80;3.90;;;;;;;4.27;80.55;99229.80;102152;1317;61166;-21
2021/12/12 03:09:21;;;;;;;8.30;4.40;;;;;;;4.66;80.53;99225.29;102130;1316;75470;-21
2021/12/12 03:11:52;;;;;;;9.30;5.20;;;;;;;5.19;79.28;99222.59;101961;1317;76023;-21
2021/12/12 03:14:21;;;;;;;7.30;4.40;;;;;;;5.21;78.87;99224.91;101700;1317;72131;-20
2021/12/12 03:16:51;;;;;;;8.40;5.30;;;;;;;4.98;79.01;99226.14;101786;1316;61911;-21
2021/12/12 03:19:32;;;;;;;10.20;6.30;;;;;;;4.72;79.56;99226.02;101799;1319;61750;-21
2021/12/12 03:22:00;;;;;;;10.00;6.40;;;;;;;4.49;80.02;99227.59;101886;1316;75421;-21
2021/12/12 03:24:29;;;;;;;11.80;4.60;;;;;;;4.31;80.57;99227.00;102145;1316;75458;-21
2021/12/12 03:27:00;;;;;;;26.00;9.20;;;;;;;4.73;80.44;99222.52;102122;1315;70945;-20
2021/12/12 03:29:29;;;;;;;27.60;11.20;;;;;;;5.25;78.71;99220.72;101946;1316;61225;-21
2021/12/12 03:32:00;;;;;;;36.90;13.20;;;;;;;5.23;77.75;99221.04;101972;1317;61858;-21
2021/12/12 03:34:36;;;;;;;22.50;11.50;;;;;;;4.96;78.52;99223.51;101798;1317;75527;-21
2021/12/12 03:37:08;;;;;;;37.40;15.90;;;;;;;4.68;79.30;99225.05;101877;1316;76077;-21
2021/12/12 03:39:38;;;;;;;18.90;10.70;;;;;;;4.38;79.93;99226.32;102065;1317;72606;-20
2021/12/12 03:42:10;;;;;;;11.30;5.80;;;;;;;4.08;81.20;99217.73;102012;1317;63688;-20
2021/12/12 03:44:39;;;;;;;13.80;6.60;;;;;;;4.46;81.29;99218.31;101760;1316;61276;-21
2021/12/12 03:47:31;;;;;;;17.50;8.70;;;;;;;5.03;79.38;99212.66;101814;1317;75454;-20
2021/12/12 03:50:02;;;;;;;11.50;6.60;;;;;;;5.00;78.67;99217.45;102127;1316;75420;-20
2021/12/12 03:52:32;;;;;;;12.40;7.30;;;;;;;4.85;79.42;99219.30;102044;1317;74642;-20
2021/12/12 03:55:01;;;;;;;13.60;7.40;;;;;;;4.63;79.92;99220.33;101997;1319;62172;-21
2021/12/12 03:57:30;;;;;;;15.60;7.90;;;;;;;4.42;80.27;99223.51;101645;1316;61194;-21
2021/12/12 03:59:59;;;;;;;13.70;7.40;;;;;;;4.22;80.90;99223.85;102158;1316;75578;-21
2021/12/12 04:02:27;;;;;;;17.60;7.30;;;;;;;4.55;80.81;99223.30;102057;1317;76259;-20
2021/12/12 04:04:55;;;;;;;16.10;7.50;;;;;;;5.15;79.41;99225.95;101766;1317;73479;-20
2021/12/12 04:07:26;;;;;;;14.30;7.60;;;;;;;5.24;78.48;99229.23;102013;1317;61201;-21
2021/12/12 04:09:54;;;;;;;16.40;8.90;;;;;;;5.02;79.07;99234.39;101789;1317;62034;-21
2021/12/12 04:12:23;;;;;;;13.10;7.60;;;;;;;4.71;79.42;99237.94;102096;1320;73934;-21
2021/12/12 04:14:53;;;;;;;13.80;8.20;;;;;;;4.40;80.04;99241.66;101971;1316;76044;-21
2021/12/12 04:17:23;;;;;;;12.30;5.60;;;;;;;4.18;80.72;99246.06;101583;1316;73509;-21
2021/12/12 04:19:54;;;;;;;17.80;8.20;;;;;;;4.60;80.64;99250.05;101925;1316;61177;-21
2021/12/12 04:22:22;;;;;;;18.10;9.30;;;;;;;5.06;79.02;99248.77;102039;1313;61187;-21
2021/12/12 04:24:52;;;;;;;14.40;8.20;;;;;;;5.04;78.82;99247.38;102183;1313;73621;-20
2021/12/12 04:27:21;;;;;;;14.80;7.90;;;;;;;4.82;79.16;99252.98;101710;1319;75386;-20
2021/12/12 04:29:50;;;;;;;15.90;7.80;;;;;;;4.55;79.53;99253.26;102004;1314;74500;-21
2021/12/12 04:32:24;;;;;;;16.20;8.30;;;;;;;4.18;80.74;99251.73;101749;1319;61179;-21
2021/12/12 04:34:59;;;;;;;13.10;6.40;;;;;;;3.92;82.09;99251.52;102204;1316;61180;-21
2021/12/12 04:37:28;;;;;;;12.40;6.30;;;;;;;4.36;81.78;99246.16;102333;1314;74771;-21
2021/12/12 04:39:58;;;;;;;19.20;8.40;;;;;;;4.94;79.81;99241.89;102111;1314;76096;-21
2021/12/12 04:42:29;;;;;;;14.00;6.90;;;;;;;4.86;78.94;99243.33;102045;1313;74436;-20
2021/12/12 04:45:26;;;;;;;18.60;9.70;;;;;;;4.60;79.78;99250.60;101778;1317;62059;-21
2021/12/12 04:51:10;;;;;;;27.80;14.90;;;;;;;3.70;83.52;99250.88;101647;1316;74609;-21
2021/12/12 04:54:01;;;;;;;15.60;8.30;;;;;;;3.49;84.39;99246.39;101909;1314;75889;-21
2021/12/12 04:56:48;;;;;;;13.70;9.50;;;;;;;3.92;83.70;99248.75;101866;1314;74370;-20
2021/12/12 04:59:20;;;;;;;19.70;9.80;;;;;;;4.36;81.69;99251.33;101817;1313;61186;-21
2021/12/12 05:01:49;;;;;;;14.00;7.30;;;;;;;4.48;81.34;99259.10;101938;1314;61265;-21
2021/12/12 05:04:41;;;;;;;17.90;8.90;;;;;;;4.31;81.57;99259.46;102025;1319;73787;-21
2021/12/12 05:07:19;;;;;;;19.50;10.40;;;;;;;3.88;83.05;99259.77;102121;1311;76142;-20
2021/12/12 05:09:57;;;;;;;11.30;5.60;;;;;;;3.70;84.13;99265.96;101935;1313;72975;-22
2021/12/12 05:12:33;;;;;;;15.60;8.90;;;;;;;4.44;83.01;99269.61;101846;1317;61124;-21
2021/12/12 05:15:24;;;;;;;22.10;13.10;;;;;;;5.03;80.06;99264.42;102247;1313;62125;-21
2021/12/12 05:17:59;;;;;;;26.40;15.10;;;;;;;4.79;79.45;99262.29;102127;1313;75610;-21
2021/12/12 05:20:38;;;;;;;29.30;16.80;;;;;;;3.96;82.55;99240.98;102048;1316;75680;-21
2021/12/12 05:23:10;;;;;;;30.70;16.00;;;;;;;3.20;86.06;99221.54;102139;1313;73435;-20
2021/12/12 05:25:55;;;;;;;27.50;14.50;;;;;;;3.21;86.47;99211.38;102247;1314;61870;-21
2021/12/12 05:28:27;;;;;;;19.10;10.30;;;;;;;3.62;85.20;99217.42;102248;1313;61211;-20
2021/12/12 05:30:56;;;;;;;12.40;7.00;;;;;;;3.69;84.63;99227.08;102149;1317;74411;-20
2021/12/12 05:33:25;;;;;;;11.70;6.90;;;;;;;3.81;84.05;99238.34;102086;1314;74835;-20
2021/12/12 05:35:53;;;;;;;14.40;7.40;;;;;;;3.64;84.37;99240.84;102075;1313;74605;-20
2021/12/12 05:38:22;;;;;;;8.20;4.80;;;;;;;3.42;85.08;99238.02;101921;1313;62755;-20
2021/12/12 05:40:51;;;;;;;11.70;7.50;;;;;;;3.64;85.03;99237.45;102085;1313;61516;-20
2021/12/12 05:43:20;;;;;;;17.20;9.50;;;;;;;4.00;83.36;99233.02;102086;1313;74328;-20
2021/12/12 05:45:49;;;;;;;16.40;9.90;;;;;;;3.91;83.28;99230.61;102089;1314;75159;-20
2021/12/12 05:48:19;;;;;;;19.20;9.30;;;;;;;3.69;84.03;99229.30;102038;1314;70975;-20
2021/12/12 05:50:48;;;;;;;12.80;7.50;;;;;;;3.14;86.08;99230.76;102311;1314;61850;-20
2021/12/12 05:53:17;;;;;;;12.60;7.70;;;;;;;3.30;86.14;99234.82;102290;1316;61150;-20
2021/12/12 05:55:46;;;;;;;15.90;10.00;;;;;;;3.64;84.76;99240.00;102280;1317;75673;-20
2021/12/12 05:58:15;;;;;;;12.30;6.90;;;;;;;3.58;84.96;99244.77;102151;1313;76223;-20
2021/12/12 06:00:50;;;;;;;16.30;9.00;;;;;;;3.76;84.33;99249.56;102005;1314;75177;-20
2021/12/12 06:03:22;;;;;;;22.70;13.50;;;;;;;3.47;85.02;99252.66;102036;1313;62218;-20
2021/12/12 06:05:51;;;;;;;18.10;10.20;;;;;;;3.21;86.45;99254.29;102176;1317;62071;-20
2021/12/12 06:08:23;;;;;;;16.40;9.10;;;;;;;3.63;84.75;99252.44;102312;1313;72774;-21
2021/12/12 06:10:52;;;;;;;18.30;10.30;;;;;;;3.58;84.59;99249.42;102275;1313;74322;-21
2021/12/12 06:13:21;;;;;;;22.40;13.20;;;;;;;3.50;84.94;99251.68;102353;1313;73182;-21
2021/12/12 06:15:53;;;;;;;25.90;13.40;;;;;;;3.34;85.62;99255.88;102271;1317;61320;-21
2021/12/12 06:18:23;;;;;;;17.10;10.20;;;;;;;3.46;85.73;99264.22;102147;1314;61090;-20
2021/12/12 06:20:52;;;;;;;15.00;7.70;;;;;;;3.56;85.39;99270.11;101661;1316;76676;-20
2021/12/12 06:23:20;;;;;;;14.90;8.20;;;;;;;3.64;84.61;99270.73;102166;1317;75216;-20
2021/12/12 06:25:49;;;;;;;18.90;11.20;;;;;;;3.98;83.38;99266.99;102284;1313;74396;-19
2021/12/12 06:28:21;;;;;;;20.60;12.80;;;;;;;3.90;83.30;99267.90;102277;1317;62059;-20
2021/12/12 06:30:50;;;;;;;17.50;9.50;;;;;;;3.85;83.87;99271.59;102153;1319;61640;-21
2021/12/12 06:33:19;;;;;;;22.80;13.60;;;;;;;3.59;84.49;99271.67;102223;1314;74675;-22
2021/12/12 06:35:47;;;;;;;21.00;12.60;;;;;;;3.29;85.93;99270.02;102222;1313;76208;-21
2021/12/12 06:38:16;;;;;;;35.20;20.90;;;;;;;3.52;85.36;99266.89;102187;1314;74208;-19
2021/12/12 06:40:45;;;;;;;37.40;23.40;;;;;;;3.64;84.50;99268.52;102167;1313;61218;-19
2021/12/12 06:43:15;;;;;;;27.80;17.90;;;;;;;3.99;83.68;99272.11;101996;1319;61232;-19
2021/12/12 06:45:44;;;;;;;40.70;26.00;;;;;;;3.79;83.78;99272.07;101712;1313;75660;-20
2021/12/12 06:48:17;;;;;;;20.00;12.50;;;;;;;3.47;85.29;99276.52;102111;1316;75105;-19
2021/12/12 06:50:47;;;;;;;13.10;7.80;;;;;;;3.30;85.89;99278.37;102052;1319;74479;-19
2021/12/12 06:53:17;;;;;;;12.30;7.40;;;;;;;4.02;84.91;99285.17;102037;1319;62173;-19
2021/12/12 06:55:46;;;;;;;20.20;13.10;;;;;;;4.42;82.01;99292.08;101713;1316;61147;-19
2021/12/12 06:58:16;;;;;;;24.20;18.50;;;;;;;4.38;81.49;99296.59;102164;1319;75448;-19
2021/12/12 07:00:50;;;;;;;14.70;9.50;;;;;;;4.07;82.61;99299.87;101805;1319;74634;-20
2021/12/12 07:03:19;;;;;;;23.20;15.50;;;;;;;3.84;83.55;99304.81;101647;1314;74706;-19
2021/12/12 07:05:47;;;;;;;20.30;11.40;;;;;;;3.54;84.91;99302.28;102226;1313;62997;-19
2021/12/12 07:08:16;;;;;;;17.90;9.20;;;;;;;3.89;84.08;99299.23;102249;1317;61895;-19
2021/12/12 07:10:45;;;;;;;16.90;10.30;;;;;;;4.20;82.66;99300.25;101923;1316;75838;-19
2021/12/12 07:13:13;;;;;;;21.90;13.00;;;;;;;3.70;84.32;99292.92;102274;1319;76585;-19
2021/12/12 07:15:52;;;;;;;15.10;9.20;;;;;;;3.75;84.60;99301.63;102253;1313;74464;-19
2021/12/12 07:18:23;;;;;;;49.90;26.10;;;;;;;3.76;84.62;99308.10;102040;1319;62185;-18
2021/12/12 07:20:53;;;;;;;16.60;10.80;;;;;;;3.50;85.39;99309.38;102227;1317;61279;-18
2021/12/12 07:23:21;;;;;;;19.30;12.20;;;;;;;3.58;85.73;99305.20;102180;1317;75719;-19
2021/12/12 07:25:49;;;;;;;35.20;24.80;;;;;;;4.20;83.50;99295.29;101850;1314;75218;-19
2021/12/12 07:28:17;;;;;;;122.70;105.60;;;;;;;3.89;83.92;99286.84;102090;1317;74195;-18
2021/12/12 07:30:46;;;;;;;34.50;28.20;;;;;;;3.42;86.12;99280.75;102273;1314;61137;-19
2021/12/12 07:33:14;;;;;;;23.10;16.00;;;;;;;3.22;87.17;99285.95;102244;1313;62166;-19
2021/12/12 07:35:43;;;;;;;22.20;13.50;;;;;;;3.49;86.44;99282.29;102091;1316;75399;-19
2021/12/12 07:38:13;;;;;;;17.30;9.50;;;;;;;3.60;86.21;99286.72;101983;1319;76583;-19
2021/12/12 07:40:45;;;;;;;15.20;9.20;;;;;;;3.91;84.79;99295.88;102061;1313;73607;-19
2021/12/12 07:43:13;;;;;;;17.40;10.50;;;;;;;3.89;84.52;99292.52;102007;1313;62357;-19
2021/12/12 07:45:42;;;;;;;16.50;9.40;;;;;;;3.39;86.56;99290.33;102102;1313;61228;-19
2021/12/12 07:48:11;;;;;;;15.90;8.90;;;;;;;3.49;86.58;99290.35;101966;1319;74833;-20
2021/12/12 07:50:41;;;;;;;16.00;8.60;;;;;;;4.22;84.39;99288.83;102015;1314;74749;-19
2021/12/12 07:53:09;;;;;;;15.70;8.90;;;;;;;4.49;82.98;99288.98;102000;1314;74623;-19
2021/12/12 07:55:37;;;;;;;14.50;8.80;;;;;;;4.25;83.27;99285.25;102105;1313;61131;-19
2021/12/12 07:58:11;;;;;;;43.40;21.90;;;;;;;3.99;84.43;99282.55;102099;1316;62150;-19
2021/12/12 08:00:40;;;;;;;17.60;10.50;;;;;;;3.68;85.54;99276.91;101985;1314;75404;-20
2021/12/12 08:03:09;;;;;;;19.30;12.90;;;;;;;3.87;85.62;99278.90;101672;1316;74887;-19
2021/12/12 08:05:37;;;;;;;32.60;21.10;;;;;;;4.45;83.62;99284.22;102025;1317;74443;-19
2021/12/12 08:08:08;;;;;;;16.60;9.80;;;;;;;4.63;82.46;99287.59;102156;1316;61260;-19
2021/12/12 08:10:38;;;;;;;15.10;9.40;;;;;;;4.42;82.97;99288.27;102021;1314;61091;-19
2021/12/12 08:13:08;;;;;;;14.00;8.90;;;;;;;3.85;84.98;99284.31;101762;1316;75251;-20
2021/12/12 08:15:36;;;;;;;8.50;5.10;;;;;;;3.74;86.01;99278.50;101822;1317;76127;-19
2021/12/12 08:18:06;;;;;;;11.00;6.20;;;;;;;4.15;85.16;99279.19;102090;1313;73015;-19
2021/12/12 08:20:35;;;;;;;13.00;7.90;;;;;;;4.75;82.60;99280.57;101959;1316;61162;-19
2021/12/12 08:23:03;;;;;;;15.40;9.10;;;;;;;4.69;82.40;99282.60;102292;1319;61839;-19
2021/12/12 08:25:32;;;;;;;13.10;8.60;;;;;;;4.45;82.97;99280.42;101990;1313;73309;-18
2021/12/12 08:28:03;;;;;;;20.30;13.80;;;;;;;4.25;83.95;99280.08;102093;1314;77056;-19
2021/12/12 08:30:32;;;;;;;36.10;25.60;;;;;;;4.21;84.31;99276.48;102009;1314;74803;-19
2021/12/12 08:33:00;;;;;;;12.00;7.50;;;;;;;4.45;83.77;99276.09;102107;1313;62153;-19
2021/12/12 08:35:29;;;;;;;10.50;6.50;;;;;;;5.01;81.89;99273.47;102082;1317;61114;-19
2021/12/12 08:37:59;;;;;;;19.20;11.10;;;;;;;4.89;81.78;99271.56;102163;1313;75543;-19
2021/12/12 08:40:30;;;;;;;15.10;9.30;;;;;;;4.52;83.38;99269.73;102050;1313;73609;-19
2021/12/12 08:42:58;;;;;;;16.80;9.60;;;;;;;4.43;83.89;99271.38;101856;1317;72270;-21
2021/12/12 08:45:30;;;;;;;15.00;8.10;;;;;;;4.27;84.60;99267.91;102290;1319;62642;-19
2021/12/12 08:48:05;;;;;;;11.30;7.20;;;;;;;4.66;84.08;99265.70;101516;1317;308249;-20
2021/12/12 08:50:34;;;;;;;15.70;9.30;;;;;;;5.19;81.90;99266.52;101965;1313;75286;-19
2021/12/12 08:53:04;;;;;;;17.60;9.50;;;;;;;5.00;81.96;99263.07;101666;1317;76340;-20
2021/12/12 08:55:36;;;;;;;15.90;9.50;;;;;;;5.01;82.27;99267.11;101700;1316;74279;-19
2021/12/12 08:58:14;;;;;;;17.10;9.50;;;;;;;4.95;82.49;99269.20;102046;1313;62236;-20
2021/12/12 09:00:57;;;;;;;11.80;6.00;;;;;;;4.58;83.84;99271.48;101709;1317;61117;-20
2021/12/12 09:03:37;;;;;;;18.10;10.00;;;;;;;5.16;83.00;99267.66;101780;1319;75725;-20
2021/12/12 09:06:07;;;;;;;18.10;9.80;;;;;;;5.48;81.02;99261.76;101935;1317;75075;-20
2021/12/12 09:08:49;;;;;;;16.60;9.70;;;;;;;5.19;82.10;99261.30;101745;1319;73447;-20
2021/12/12 09:11:19;;;;;;;13.00;7.40;;;;;;;5.10;82.57;99260.08;101967;1317;61532;-20
2021/12/12 09:13:52;;;;;;;17.00;10.30;;;;;;;4.96;82.87;99258.45;102225;1319;61186;-20
2021/12/12 09:16:46;;;;;;;9.50;5.00;;;;;;;4.74;84.43;99264.98;102286;1319;75950;-20
2021/12/12 09:19:38;;;;;;;17.70;7.40;;;;;;;5.43;82.44;99267.89;102094;1316;76122;-18
2021/12/12 09:22:19;;;;;;;12.70;6.70;;;;;;;5.88;80.71;99267.79;102243;1313;71548;-18
2021/12/12 09:25:31;;;;;;;11.20;6.20;;;;;;;5.92;80.64;99266.81;102253;1314;61119;-20
2021/12/12 09:28:06;;;;;;;17.40;9.70;;;;;;;5.54;81.50;99258.67;101762;1319;62340;-18
2021/12/12 09:30:34;;;;;;;17.10;9.30;;;;;;;5.34;82.59;99252.59;101708;1319;74487;-20
2021/12/12 09:33:22;;;;;;;15.40;7.40;;;;;;;5.07;84.31;99247.68;101642;1319;76098;-18
2021/12/12 09:36:06;;;;;;;15.10;8.10;;;;;;;5.59;82.96;99251.51;101653;1320;73480;-20
2021/12/12 09:38:40;;;;;;;20.00;11.70;;;;;;;6.18;81.21;99249.50;101599;1325;61160;-21
2021/12/12 09:41:17;;;;;;;20.60;12.00;;;;;;;6.03;80.76;99247.96;101319;1325;61269;-20
2021/12/12 09:44:23;;;;;;;21.50;11.60;;;;;;;5.73;82.03;99248.44;101648;1320;75689;-20
2021/12/12 09:47:31;;;;;;;16.20;9.10;;;;;;;5.61;82.39;99248.65;101744;1319;76144;-20
2021/12/12 09:53:47;;;;;;;15.60;8.60;;;;;;;5.81;82.60;99241.14;101649;1320;61291;-18
2021/12/12 09:56:41;;;;;;;21.30;10.70;;;;;;;6.12;81.57;99242.26;101591;1320;61107;-19
2021/12/12 09:59:24;;;;;;;17.70;9.70;;;;;;;5.88;82.26;99240.85;101532;1321;74788;-20
2021/12/12 10:02:05;;;;;;;22.90;11.20;;;;;;;5.39;83.99;99235.60;101749;1319;75162;-20
2021/12/12 10:05:02;;;;;;;15.80;6.10;;;;;;;5.06;86.08;99237.74;102006;1313;73045;-20
2021/12/12 10:08:02;;;;;;;15.80;9.20;;;;;;;6.04;83.46;99242.69;102167;1319;61168;-18
2021/12/12 10:10:47;;;;;;;18.20;8.90;;;;;;;6.64;81.32;99236.89;102144;1319;62133;-18
2021/12/12 10:13:29;;;;;;;17.50;10.90;;;;;;;6.54;80.52;99230.43;101953;1319;75425;-18
2021/12/12 10:16:04;;;;;;;16.90;9.60;;;;;;;6.13;81.71;99228.56;102118;1319;76014;-18
2021/12/12 10:18:53;;;;;;;17.70;10.50;;;;;;;5.81;83.01;99229.73;102085;1316;73403;-18
2021/12/12 10:21:34;;;;;;;10.70;5.30;;;;;;;5.72;83.50;99229.55;102156;1319;63551;-20
2021/12/12 10:24:26;;;;;;;15.30;8.40;;;;;;;6.46;81.96;99228.34;102037;1317;61444;-20
2021/12/12 10:27:19;;;;;;;14.40;7.40;;;;;;;6.80;79.97;99226.94;102307;1319;74687;-20
2021/12/12 10:30:07;;;;;;;19.90;9.60;;;;;;;6.49;80.74;99218.30;102157;1313;74666;-20
2021/12/12 10:32:41;;;;;;;13.20;7.00;;;;;;;6.25;82.10;99213.52;102058;1313;73587;-20
2021/12/12 10:35:11;;;;;;;16.80;9.20;;;;;;;5.91;83.41;99211.58;101752;1316;61284;-20
2021/12/12 10:37:51;;;;;;;18.80;9.60;;;;;;;5.48;85.12;99207.02;102041;1317;61196;-20
2021/12/12 10:40:30;;;;;;;39.50;19.30;;;;;;;6.14;84.41;99209.35;101806;1317;74559;-20
2021/12/12 10:43:00;;;;;;;33.90;19.00;;;;;;;6.75;81.74;99202.54;101966;1317;74094;-20
2021/12/12 10:45:32;;;;;;;16.20;9.10;;;;;;;6.83;80.81;99206.17;102040;1314;73002;-20
2021/12/12 10:48:01;;;;;;;16.20;9.40;;;;;;;6.59;81.36;99212.36;102096;1314;62187;-19
2021/12/12 10:50:49;;;;;;;16.90;7.20;;;;;;;6.43;81.88;99211.26;102123;1313;62251;-20
2021/12/12 10:53:31;;;;;;;11.10;5.80;;;;;;;6.32;82.45;99209.36;102272;1313;73887;-20
2021/12/12 10:56:16;;;;;;;14.50;6.70;;;;;;;6.83;81.44;99202.75;102160;1313;76112;-18
2021/12/12 10:58:53;;;;;;;18.50;8.40;;;;;;;7.19;80.12;99198.73;102036;1319;74158;-18
2021/12/12 11:01:26;;;;;;;15.10;8.50;;;;;;;7.19;79.95;99197.19;102063;1319;62137;-20
2021/12/12 11:04:23;;;;;;;20.30;11.30;;;;;;;6.92;80.60;99195.11;102133;1319;61147;-18
2021/12/12 11:06:58;;;;;;;27.40;14.60;;;;;;;6.48;82.40;99195.11;102229;1313;74396;-20
2021/12/12 11:09:34;;;;;;;16.90;9.20;;;;;;;6.19;84.01;99194.81;102293;1319;76045;-20
2021/12/12 11:12:12;;;;;;;21.30;11.80;;;;;;;6.71;82.68;99191.10;102125;1313;73603;-20
2021/12/12 11:14:53;;;;;;;29.00;13.80;;;;;;;7.21;80.93;99184.29;102132;1319;61918;-18
2021/12/12 11:17:26;;;;;;;48.30;26.20;;;;;;;7.26;80.39;99182.38;102198;1319;61186;-18
2021/12/12 11:20:02;;;;;;;25.20;13.90;;;;;;;6.75;81.83;99175.77;101749;1316;75685;-20
2021/12/12 11:22:51;;;;;;;26.80;13.90;;;;;;;6.67;82.54;99178.21;101706;1316;75448;-20
2021/12/12 11:25:31;;;;;;;14.00;8.40;;;;;;;6.35;83.87;99180.02;101898;1319;74443;-18
2021/12/12 11:28:03;;;;;;;23.90;11.30;;;;;;;6.96;82.59;99179.30;101966;1314;61184;-20
2021/12/12 11:30:46;;;;;;;20.60;11.20;;;;;;;7.41;80.83;99180.03;102113;1313;61190;-18
2021/12/12 11:33:15;;;;;;;29.80;16.90;;;;;;;7.09;81.39;99179.39;101749;1314;74790;-18
2021/12/12 11:35:45;;;;;;;26.10;13.40;;;;;;;7.03;82.11;99175.98;102007;1313;75949;-18
2021/12/12 11:38:25;;;;;;;27.80;13.80;;;;;;;6.94;82.37;99175.13;101692;1319;73027;-20
2021/12/12 11:41:04;;;;;;;17.70;8.80;;;;;;;6.78;82.98;99177.85;101996;1313;63564;-20
2021/12/12 11:44:11;;;;;;;16.80;8.30;;;;;;;7.31;82.37;99176.01;102008;1316;61154;-21
2021/12/12 11:47:14;;;;;;;14.90;7.80;;;;;;;7.89;80.08;99178.77;102232;1313;74330;-18
2021/12/12 11:50:02;;;;;;;12.00;6.50;;;;;;;7.77;80.05;99177.44;102266;1316;76022;-20
2021/12/12 11:52:55;;;;;;;9.80;5.60;;;;;;;7.52;80.64;99177.41;102271;1317;74323;-20
2021/12/12 11:55:28;;;;;;;7.70;5.00;;;;;;;7.26;81.92;99181.16;102100;1319;62810;-18
2021/12/12 11:58:16;;;;;;;11.50;7.00;;;;;;;7.69;80.98;99178.89;102179;1319;61058;-18
2021/12/12 12:00:50;;;;;;;16.30;9.70;;;;;;;7.88;80.24;99179.67;102213;1313;75591;-18
2021/12/12 12:04:06;;;;;;;11.20;5.30;;;;;;;7.77;80.43;99180.40;102283;1317;75934;-18
2021/12/12 12:06:56;;;;;;;12.60;6.90;;;;;;;7.49;80.98;99181.39;101574;1319;74320;-20
2021/12/12 12:09:46;;;;;;;9.40;4.90;;;;;;;7.60;81.61;99180.31;101481;1320;61198;-20
2021/12/12 12:12:19;;;;;;;11.00;5.40;;;;;;;8.03;80.27;99180.05;101662;1320;61790;-20
2021/12/12 12:15:18;;;;;;;10.50;5.80;;;;;;;7.92;80.25;99173.55;101219;1325;75529;-21
2021/12/12 12:17:59;;;;;;;8.30;5.50;;;;;;;7.64;80.92;99168.33;101338;1323;76148;-20
2021/12/12 12:20:48;;;;;;;4.10;2.30;;;;;;;7.35;82.38;99165.44;101286;1325;72285;-20